Time;durP1;ratioP1;P1;durP2;ratioP2;P2;SDS_P1;SDS_P2;PMS_P1;PMS_P2;Temp;Humidity;BMP_temperature;BMP_pressure;BME280_temperature;BME280_humidity;BME280_pressure;Samples;Min_cycle;Max_cycle;Signal;HPM_P1;HPM_P2
2023/12/04 00:02:21;;;;;;;38.25;24.77;;;;;;;-1.44;100.00;101137.41;5042553;28;20033;-70
2023/12/04 00:04:46;;;;;;;39.28;24.33;;;;;;;-1.43;100.00;101128.72;5024711;28;20532;-70
2023/12/04 00:07:12;;;;;;;35.15;24.60;;;;;;;-1.43;100.00;101133.94;5043067;28;20032;-68
2023/12/04 00:09:37;;;;;;;36.78;25.67;;;;;;;-1.42;100.00;101127.84;5040425;28;20024;-68
2023/12/04 00:12:03;;;;;;;38.13;25.27;;;;;;;-1.41;100.00;101130.47;5025369;28;20037;-68
2023/12/04 00:14:28;;;;;;;35.28;23.98;;;;;;;-1.37;100.00;101128.75;5042361;28;20079;-67
2023/12/04 00:16:53;;;;;;;38.65;25.42;;;;;;;-1.37;100.00;101128.75;5043286;28;20040;-69
2023/12/04 00:19:19;;;;;;;38.15;25.52;;;;;;;-1.36;100.00;101114.81;5040965;28;20025;-68
2023/12/04 00:21:44;;;;;;;35.38;24.65;;;;;;;-1.36;100.00;101118.28;5043011;28;20079;-67
2023/12/04 00:24:12;;;;;;;36.17;24.35;;;;;;;-1.36;100.00;101120.91;5042516;28;20141;-68
2023/12/04 00:26:37;;;;;;;37.05;25.45;;;;;;;-1.35;100.00;101112.19;5041309;28;20068;-68
2023/12/04 00:29:03;;;;;;;35.67;23.77;;;;;;;-1.35;100.00;101114.81;5040148;28;20083;-68
2023/12/04 00:31:28;;;;;;;34.35;23.58;;;;;;;-1.37;100.00;101100.03;5034012;28;20016;-69
2023/12/04 00:33:54;;;;;;;34.88;23.88;;;;;;;-1.38;100.00;101101.75;5040993;28;20520;-68
2023/12/04 00:36:19;;;;;;;33.83;24.10;;;;;;;-1.35;100.00;101106.09;5040845;28;20021;-68
2023/12/04 00:38:45;;;;;;;35.13;23.65;;;;;;;-1.36;100.00;101096.53;5040700;28;20028;-68
2023/12/04 00:41:13;;;;;;;35.72;24.20;;;;;;;-1.37;100.00;101100.03;5039067;28;20025;-68
2023/12/04 00:43:39;;;;;;;36.28;24.25;;;;;;;-1.39;100.00;101094.78;5042505;28;20051;-69
2023/12/04 00:46:04;;;;;;;37.22;24.50;;;;;;;-1.38;100.00;101093.03;5041869;28;20115;-68
2023/12/04 00:48:29;;;;;;;34.10;23.92;;;;;;;-1.40;100.00;101094.78;5041755;28;20321;-68
2023/12/04 00:50:55;;;;;;;34.30;23.38;;;;;;;-1.40;100.00;101093.03;5019369;28;20108;-67
2023/12/04 00:53:20;;;;;;;34.03;23.20;;;;;;;-1.41;100.00;101095.66;5042205;28;20021;-68
2023/12/04 00:55:46;;;;;;;33.55;24.45;;;;;;;-1.38;100.00;101082.59;5040462;28;20558;-68
2023/12/04 00:58:12;;;;;;;32.55;23.40;;;;;;;-1.37;100.00;101081.75;5041570;28;20133;-70
2023/12/04 01:00:37;;;;;;;36.33;23.80;;;;;;;-1.38;100.00;101069.53;5022979;28;20036;-69
2023/12/04 01:03:03;;;;;;;35.92;24.40;;;;;;;-1.37;100.00;101068.69;5040192;28;20422;-70
2023/12/04 01:05:28;;;;;;;34.92;23.80;;;;;;;-1.35;100.00;101059.09;5041840;28;20051;-68
2023/12/04 01:07:54;;;;;;;34.10;23.88;;;;;;;-1.36;100.00;101059.97;5041302;28;20025;-68
2023/12/04 01:10:20;;;;;;;32.25;23.10;;;;;;;-1.35;100.00;101064.31;5039631;28;20079;-68
2023/12/04 01:12:45;;;;;;;34.17;22.48;;;;;;;-1.34;100.00;101061.72;5041551;28;20028;-68
2023/12/04 01:15:13;;;;;;;32.38;22.20;;;;;;;-1.35;100.00;101062.56;5041295;28;20370;-68
2023/12/04 01:17:39;;;;;;;35.33;22.73;;;;;;;-1.34;100.00;101060.84;5041288;28;20017;-68
2023/12/04 01:20:05;;;;;;;32.25;22.10;;;;;;;-1.37;100.00;101047.81;5041231;28;20028;-67
2023/12/04 01:22:30;;;;;;;32.53;22.17;;;;;;;-1.33;100.00;101057.38;5039550;28;20029;-68
2023/12/04 01:24:56;;;;;;;33.22;22.67;;;;;;;-1.36;100.00;101046.91;5039484;28;20039;-68
2023/12/04 01:27:21;;;;;;;32.55;22.00;;;;;;;-1.31;100.00;101058.22;5040718;28;20024;-68
2023/12/04 01:29:46;;;;;;;33.90;22.25;;;;;;;-1.32;100.00;101053.88;5040577;28;20082;-68
2023/12/04 01:32:12;;;;;;;29.42;21.10;;;;;;;-1.29;100.00;101048.69;5036286;28;20499;-69
2023/12/04 01:34:37;;;;;;;29.95;22.15;;;;;;;-1.28;100.00;101042.56;5044426;28;20036;-68
2023/12/04 01:37:03;;;;;;;30.85;20.92;;;;;;;-1.26;100.00;101044.31;5041277;28;20104;-68
2023/12/04 01:39:28;;;;;;;28.85;20.92;;;;;;;-1.24;100.00;101046.94;5040381;28;20062;-68
2023/12/04 01:41:54;;;;;;;31.02;21.75;;;;;;;-1.23;100.00;101033.00;5039987;28;20124;-68
2023/12/04 01:44:19;;;;;;;28.52;20.30;;;;;;;-1.23;100.00;101032.13;5041008;28;20080;-67
2023/12/04 01:46:45;;;;;;;30.27;21.00;;;;;;;-1.20;100.00;101038.22;5040409;28;20039;-68
2023/12/04 01:49:10;;;;;;;29.48;19.90;;;;;;;-1.19;100.00;101037.34;5039547;28;20017;-68
2023/12/04 01:51:36;;;;;;;28.80;20.48;;;;;;;-1.19;100.00;101036.50;5039535;28;20450;-68
2023/12/04 01:54:05;;;;;;;29.70;21.08;;;;;;;-1.21;100.00;101026.06;5037958;28;20553;-68
2023/12/04 01:56:30;;;;;;;30.88;21.40;;;;;;;-1.19;100.00;101026.91;5041759;28;20028;-68
2023/12/04 01:58:56;;;;;;;27.75;19.95;;;;;;;-1.19;100.00;101016.47;5040663;28;20021;-69
2023/12/04 02:01:22;;;;;;;27.77;19.80;;;;;;;-1.18;100.00;101012.09;5039893;28;20492;-67
2023/12/04 02:03:47;;;;;;;26.75;20.23;;;;;;;-1.19;100.00;101015.59;5038915;28;20040;-68
2023/12/04 02:06:13;;;;;;;25.67;18.65;;;;;;;-1.20;100.00;101006.88;5041008;28;20142;-70
2023/12/04 02:08:40;;;;;;;26.60;19.52;;;;;;;-1.23;100.00;101003.41;5040747;28;20036;-68
2023/12/04 02:11:06;;;;;;;25.60;19.00;;;;;;;-1.21;100.00;100999.94;5041322;28;20020;-68
2023/12/04 02:13:31;;;;;;;26.33;19.55;;;;;;;-1.23;100.00;101006.00;5039370;28;20086;-67
2023/12/04 02:16:00;;;;;;;27.95;19.73;;;;;;;-1.21;100.00;101005.16;5040798;28;20071;-68
2023/12/04 02:18:26;;;;;;;26.02;19.27;;;;;;;-1.22;100.00;100997.31;5038524;28;20032;-67
2023/12/04 02:20:51;;;;;;;26.33;19.50;;;;;;;-1.23;100.00;101001.66;5039385;28;20033;-68
2023/12/04 02:23:17;;;;;;;27.50;19.13;;;;;;;-1.22;100.00;101003.41;5039133;28;20035;-67
2023/12/04 02:25:42;;;;;;;26.35;18.52;;;;;;;-1.21;100.00;100992.09;5023077;28;20060;-68
2023/12/04 02:28:12;;;;;;;26.85;19.13;;;;;;;-1.22;100.00;100987.72;5040741;28;20474;-68
2023/12/04 02:30:41;;;;;;;28.55;19.10;;;;;;;-1.22;100.00;100985.09;5023041;28;20467;-67
2023/12/04 02:33:07;;;;;;;26.85;19.65;;;;;;;-1.22;100.00;100986.84;5036561;28;20056;-68
2023/12/04 02:35:35;;;;;;;26.52;19.02;;;;;;;-1.23;100.00;100972.06;5040997;28;20033;-68
2023/12/04 02:38:02;;;;;;;25.80;19.17;;;;;;;-1.20;100.00;100982.53;5041188;28;20035;-68
2023/12/04 02:40:28;;;;;;;24.70;18.20;;;;;;;-1.21;100.00;100973.81;5041430;28;20021;-67
2023/12/04 02:42:53;;;;;;;27.35;19.48;;;;;;;-1.20;100.00;100975.56;5046133;28;20508;-67
2023/12/04 02:45:19;;;;;;;26.58;18.70;;;;;;;-1.22;100.00;100977.28;5045050;28;20463;-69
2023/12/04 02:47:44;;;;;;;27.73;19.75;;;;;;;-1.23;100.00;100965.09;5037829;28;20041;-68
2023/12/04 02:50:10;;;;;;;25.83;19.17;;;;;;;-1.23;100.00;100957.25;5043437;28;20036;-67
2023/12/04 02:52:35;;;;;;;26.00;18.02;;;;;;;-1.26;100.00;100950.28;5042921;28;20033;-68
2023/12/04 02:55:00;;;;;;;24.00;18.17;;;;;;;-1.26;100.00;100944.19;5037537;28;20431;-68
2023/12/04 02:57:26;;;;;;;24.80;18.52;;;;;;;-1.23;100.00;100948.56;5040646;28;20038;-67
2023/12/04 02:59:51;;;;;;;25.13;18.25;;;;;;;-1.22;100.00;100945.06;5043427;28;20043;-67
2023/12/04 03:02:17;;;;;;;26.40;18.30;;;;;;;-1.23;100.00;100940.72;5044732;28;20029;-67
2023/12/04 03:04:42;;;;;;;24.27;17.88;;;;;;;-1.23;100.00;100940.72;5044387;28;20021;-66
2023/12/04 03:07:07;;;;;;;24.10;17.38;;;;;;;-1.24;100.00;100932.03;5044471;28;20029;-70
2023/12/04 03:09:33;;;;;;;22.90;17.38;;;;;;;-1.26;100.00;100932.00;5044834;28;20025;-70
2023/12/04 03:11:58;;;;;;;25.20;18.02;;;;;;;-1.26;100.00;100928.53;5043506;28;20036;-68
2023/12/04 03:14:23;;;;;;;25.40;18.27;;;;;;;-1.26;100.00;100925.91;5025436;28;20520;-68
2023/12/04 03:16:49;;;;;;;23.60;17.90;;;;;;;-1.26;100.00;100928.53;5037398;28;20032;-68
2023/12/04 03:19:15;;;;;;;22.77;17.33;;;;;;;-1.26;100.00;100925.91;5040856;28;20032;-67
2023/12/04 03:21:40;;;;;;;24.23;17.60;;;;;;;-1.26;100.00;100912.84;5043912;28;20029;-67
2023/12/04 03:24:05;;;;;;;25.13;18.15;;;;;;;-1.26;100.00;100913.72;5043389;28;20024;-67
2023/12/04 03:26:31;;;;;;;23.08;17.25;;;;;;;-1.26;100.00;100911.13;5047197;28;20233;-69
2023/12/04 03:28:57;;;;;;;21.15;16.10;;;;;;;-1.29;100.00;100903.31;5043423;28;20495;-68
2023/12/04 03:31:23;;;;;;;20.65;16.60;;;;;;;-1.34;100.00;100896.34;5042889;28;20368;-67
2023/12/04 03:33:48;;;;;;;24.05;16.60;;;;;;;-1.31;100.00;100905.03;5042259;28;20087;-68
2023/12/04 03:36:13;;;;;;;23.13;16.88;;;;;;;-1.32;100.00;100897.22;5041824;28;20052;-68
2023/12/04 03:38:39;;;;;;;25.23;17.65;;;;;;;-1.38;100.00;100887.66;5043130;28;20498;-68
2023/12/04 03:41:04;;;;;;;22.67;16.95;;;;;;;-1.38;100.00;100878.94;5035940;28;20356;-68
2023/12/04 03:43:30;;;;;;;21.17;16.25;;;;;;;-1.36;100.00;100879.81;5042768;28;20045;-68
2023/12/04 03:45:55;;;;;;;22.88;16.80;;;;;;;-1.37;100.00;100873.72;5043369;28;20045;-68
2023/12/04 03:48:20;;;;;;;24.85;17.95;;;;;;;-1.38;100.00;100881.53;5042302;28;20029;-68
2023/12/04 03:50:46;;;;;;;24.23;18.00;;;;;;;-1.39;100.00;100879.81;5043082;28;20027;-68
2023/12/04 03:53:12;;;;;;;22.02;16.95;;;;;;;-1.39;100.00;100874.59;5044079;28;20040;-68
2023/12/04 03:55:37;;;;;;;24.25;17.48;;;;;;;-1.42;100.00;100865.03;5043654;28;20032;-67
2023/12/04 03:58:03;;;;;;;20.92;16.73;;;;;;;-1.40;100.00;100865.03;5044042;28;20075;-67
2023/12/04 04:00:28;;;;;;;22.38;17.27;;;;;;;-1.42;100.00;100859.81;5043168;28;20028;-67
2023/12/04 04:02:54;;;;;;;24.35;17.67;;;;;;;-1.41;100.00;100860.69;5043987;28;20040;-67
2023/12/04 04:05:19;;;;;;;22.50;17.63;;;;;;;-1.45;100.00;100854.59;5043021;28;20059;-68
2023/12/04 04:07:45;;;;;;;23.13;17.58;;;;;;;-1.45;100.00;100846.75;5044410;28;20036;-68
2023/12/04 04:10:10;;;;;;;24.23;17.52;;;;;;;-1.44;100.00;100848.50;5044054;28;20047;-67
2023/12/04 04:12:36;;;;;;;23.23;17.60;;;;;;;-1.46;100.00;100845.03;5044092;28;20036;-67
2023/12/04 04:15:01;;;;;;;24.73;18.50;;;;;;;-1.46;100.00;100842.41;5043531;28;20362;-67
2023/12/04 04:17:27;;;;;;;22.27;17.33;;;;;;;-1.49;100.00;100829.38;5043704;28;20032;-67
2023/12/04 04:19:53;;;;;;;24.65;18.02;;;;;;;-1.46;100.00;100834.59;5042049;28;20043;-68
2023/12/04 04:22:22;;;;;;;24.17;18.83;;;;;;;-1.53;100.00;100825.88;5042496;28;20033;-68
2023/12/04 04:24:48;;;;;;;23.95;18.52;;;;;;;-1.46;100.00;100831.97;5042908;28;20033;-67
2023/12/04 04:27:13;;;;;;;21.42;17.38;;;;;;;-1.44;100.00;100832.81;5043178;28;20032;-67
2023/12/04 04:29:39;;;;;;;23.73;18.33;;;;;;;-1.43;100.00;100825.88;5043004;28;20045;-67
2023/12/04 04:32:05;;;;;;;23.48;19.35;;;;;;;-1.42;100.00;100827.59;5043044;28;20048;-67
2023/12/04 04:34:30;;;;;;;22.02;17.83;;;;;;;-1.42;100.00;100823.28;5042155;28;20525;-67
2023/12/04 04:36:56;;;;;;;27.02;18.52;;;;;;;-1.42;100.00;100814.53;5042693;28;20104;-67
2023/12/04 04:39:21;;;;;;;22.92;18.55;;;;;;;-1.40;100.00;100813.69;5042776;28;20114;-68
2023/12/04 04:41:46;;;;;;;21.83;18.05;;;;;;;-1.40;100.00;100810.19;5042863;28;20082;-69
2023/12/04 04:44:15;;;;;;;23.65;19.02;;;;;;;-1.38;100.00;100808.44;5023647;28;20037;-67
2023/12/04 04:46:41;;;;;;;20.98;17.27;;;;;;;-1.40;100.00;100810.19;5039546;28;20379;-67
2023/12/04 04:49:06;;;;;;;23.00;17.60;;;;;;;-1.38;100.00;100806.72;5041841;28;20029;-67
2023/12/04 04:51:33;;;;;;;23.77;18.02;;;;;;;-1.40;100.00;100800.63;5023825;28;20036;-69
2023/12/04 04:53:59;;;;;;;21.13;17.80;;;;;;;-1.38;100.00;100800.59;5041967;28;20036;-67
2023/12/04 04:56:24;;;;;;;21.20;17.77;;;;;;;-1.34;100.00;100802.34;5042556;28;20266;-68
2023/12/04 04:58:50;;;;;;;21.90;16.92;;;;;;;-1.36;100.00;100804.09;5042194;28;20029;-69
2023/12/04 05:01:15;;;;;;;22.60;17.50;;;;;;;-1.35;100.00;100798.00;5035300;28;20029;-67
2023/12/04 05:03:40;;;;;;;21.20;17.13;;;;;;;-1.33;100.00;100807.56;5041681;28;20505;-67
2023/12/04 05:06:06;;;;;;;23.20;17.10;;;;;;;-1.32;100.00;100795.38;5040795;28;20123;-67
2023/12/04 05:08:32;;;;;;;18.27;15.57;;;;;;;-1.32;100.00;100803.22;5041268;28;20029;-67
2023/12/04 05:10:57;;;;;;;20.90;17.70;;;;;;;-1.36;100.00;100798.88;5041690;28;20016;-67
2023/12/04 05:13:22;;;;;;;20.65;16.77;;;;;;;-1.30;100.00;100804.06;5041119;28;20055;-67
2023/12/04 05:15:48;;;;;;;20.02;17.13;;;;;;;-1.30;100.00;100798.84;5037968;28;20025;-67
2023/12/04 05:18:16;;;;;;;20.52;17.05;;;;;;;-1.29;100.00;100798.00;5034406;28;20476;-67
2023/12/04 05:20:41;;;;;;;21.05;16.58;;;;;;;-1.31;100.00;100791.88;5023395;28;20316;-67
2023/12/04 05:23:06;;;;;;;19.85;17.08;;;;;;;-1.31;100.00;100795.38;5040631;28;20498;-67
2023/12/04 05:25:32;;;;;;;19.08;16.33;;;;;;;-1.29;100.00;100775.34;5041226;28;20040;-67
2023/12/04 05:27:57;;;;;;;18.80;16.73;;;;;;;-1.30;100.00;100786.66;5020905;28;20029;-67
2023/12/04 05:30:23;;;;;;;20.50;16.70;;;;;;;-1.26;100.00;100777.06;5041152;28;20426;-67
2023/12/04 05:32:48;;;;;;;20.05;17.02;;;;;;;-1.30;100.00;100764.91;5040738;28;20544;-67
2023/12/04 05:35:16;;;;;;;18.55;16.40;;;;;;;-1.28;100.00;100769.25;5041255;28;20021;-67
2023/12/04 05:37:41;;;;;;;19.58;16.48;;;;;;;-1.28;100.00;100764.03;5041496;28;20036;-68
2023/12/04 05:40:07;;;;;;;22.75;18.23;;;;;;;-1.31;100.00;100758.81;5041282;28;20025;-68
2023/12/04 05:42:33;;;;;;;18.50;16.15;;;;;;;-1.28;100.00;100757.94;5040632;28;20025;-67
2023/12/04 05:45:00;;;;;;;19.25;16.58;;;;;;;-1.33;100.00;100754.50;5041006;28;20311;-67
2023/12/04 05:47:25;;;;;;;18.27;14.80;;;;;;;-1.27;100.00;100752.69;5037016;28;20091;-67
2023/12/04 05:49:51;;;;;;;18.95;15.30;;;;;;;-1.26;100.00;100759.66;5041373;28;20013;-67
2023/12/04 05:52:16;;;;;;;18.92;15.15;;;;;;;-1.24;100.00;100753.59;5039853;28;20679;-68
2023/12/04 05:54:41;;;;;;;17.35;15.02;;;;;;;-1.22;100.00;100757.03;5042252;28;20032;-68
2023/12/04 05:57:06;;;;;;;17.00;14.07;;;;;;;-1.23;100.00;100745.72;5042090;28;20057;-70
2023/12/04 05:59:32;;;;;;;15.90;14.18;;;;;;;-1.22;100.00;100751.81;5041645;28;20402;-68
2023/12/04 06:01:57;;;;;;;16.85;14.23;;;;;;;-1.22;100.00;100747.47;5040591;28;20063;-69
2023/12/04 06:04:22;;;;;;;17.42;14.13;;;;;;;-1.21;100.00;100743.09;5040916;28;20440;-68
2023/12/04 06:06:48;;;;;;;17.00;14.18;;;;;;;-1.24;100.00;100738.78;5031813;28;20098;-68
2023/12/04 06:09:16;;;;;;;16.23;13.98;;;;;;;-1.22;100.00;100746.59;5040622;28;20553;-67
2023/12/04 06:11:41;;;;;;;15.98;13.30;;;;;;;-1.20;100.00;100743.13;5037014;28;20095;-67
2023/12/04 06:14:06;;;;;;;14.95;13.35;;;;;;;-1.22;100.00;100741.38;5038143;28;20025;-68
2023/12/04 06:16:32;;;;;;;15.00;13.40;;;;;;;-1.24;100.00;100730.06;5042228;28;20029;-67
2023/12/04 06:18:57;;;;;;;15.38;13.75;;;;;;;-1.26;100.00;100722.22;5041092;28;20021;-67
2023/12/04 06:21:22;;;;;;;16.17;13.50;;;;;;;-1.26;100.00;100719.63;5040614;28;20067;-67
2023/12/04 06:23:48;;;;;;;14.85;13.10;;;;;;;-1.27;100.00;100699.63;5040829;28;20043;-67
2023/12/04 06:26:14;;;;;;;14.93;13.13;;;;;;;-1.24;100.00;100710.06;5041676;28;20013;-67
2023/12/04 06:28:40;;;;;;;17.70;13.70;;;;;;;-1.26;100.00;100710.03;5040723;28;20101;-67
2023/12/04 06:31:06;;;;;;;14.05;12.30;;;;;;;-1.25;100.00;100697.88;5040840;28;20104;-67
2023/12/04 06:33:32;;;;;;;17.10;13.50;;;;;;;-1.26;100.00;100694.38;5041080;28;20715;-67
2023/12/04 06:35:57;;;;;;;15.30;12.50;;;;;;;-1.25;100.00;100690.03;5044146;28;20056;-68
2023/12/04 06:38:24;;;;;;;13.95;12.45;;;;;;;-1.25;100.00;100682.22;5044514;28;20039;-68
2023/12/04 06:40:50;;;;;;;15.50;12.88;;;;;;;-1.28;100.00;100677.00;5043841;28;20542;-67
2023/12/04 06:43:18;;;;;;;13.13;11.73;;;;;;;-1.23;100.00;100677.84;5044031;28;20051;-68
2023/12/04 06:45:45;;;;;;;13.05;11.65;;;;;;;-1.25;100.00;100669.16;5044460;28;20495;-67
2023/12/04 06:48:15;;;;;;;13.40;11.70;;;;;;;-1.24;100.00;100667.41;5045173;28;20021;-66
2023/12/04 06:50:40;;;;;;;13.55;11.43;;;;;;;-1.24;100.00;100643.91;5026501;28;20518;-67
2023/12/04 06:53:06;;;;;;;12.23;10.95;;;;;;;-1.26;100.00;100644.75;5044564;28;20040;-66
2023/12/04 06:55:31;;;;;;;13.77;11.60;;;;;;;-1.24;100.00;100642.16;5044712;28;20040;-67
2023/12/04 06:57:56;;;;;;;12.85;11.55;;;;;;;-1.25;100.00;100637.81;5044030;28;20482;-66
2023/12/04 07:00:22;;;;;;;13.65;11.25;;;;;;;-1.25;100.00;100650.88;5036582;28;20110;-66
2023/12/04 07:02:47;;;;;;;12.25;10.95;;;;;;;-1.26;100.00;100656.94;5044458;28;20028;-67
2023/12/04 07:05:12;;;;;;;12.85;10.50;;;;;;;-1.24;100.00;100650.00;5044812;28;20017;-67
2023/12/04 07:07:38;;;;;;;12.35;11.05;;;;;;;-1.25;100.00;100663.94;5042957;28;20056;-66
2023/12/04 07:10:04;;;;;;;12.18;10.90;;;;;;;-1.26;100.00;100655.19;5042856;28;20172;-67
2023/12/04 07:12:29;;;;;;;12.75;11.00;;;;;;;-1.27;100.00;100657.84;5042984;28;20023;-68
2023/12/04 07:14:54;;;;;;;12.48;11.23;;;;;;;-1.27;100.00;100652.59;5043242;28;20029;-69
2023/12/04 07:17:22;;;;;;;11.65;10.20;;;;;;;-1.24;100.00;100650.00;5043409;28;20546;-68
2023/12/04 07:19:47;;;;;;;11.98;10.38;;;;;;;-1.23;100.00;100662.16;5040479;28;20395;-69
2023/12/04 07:22:12;;;;;;;13.00;10.75;;;;;;;-1.24;100.00;100659.56;5042966;28;20033;-69
2023/12/04 07:24:38;;;;;;;11.80;10.60;;;;;;;-1.23;100.00;100656.94;5041948;28;20025;-68
2023/12/04 07:27:04;;;;;;;11.27;10.07;;;;;;;-1.21;100.00;100656.91;5043232;28;20035;-68
2023/12/04 07:29:29;;;;;;;11.15;10.10;;;;;;;-1.21;100.00;100644.75;5042937;28;20021;-68
2023/12/04 07:31:55;;;;;;;11.05;9.82;;;;;;;-1.19;100.00;100644.72;5043232;28;20037;-68
2023/12/04 07:34:20;;;;;;;10.57;9.50;;;;;;;-1.19;100.00;100640.38;5043470;28;20029;-67
2023/12/04 07:36:48;;;;;;;11.68;10.00;;;;;;;-1.19;100.00;100645.59;5043453;28;20533;-68
2023/12/04 07:39:13;;;;;;;11.73;10.52;;;;;;;-1.22;100.00;100645.59;5041833;28;20029;-67
2023/12/04 07:41:38;;;;;;;10.93;9.82;;;;;;;-1.23;100.00;100663.91;5040150;28;20033;-68
2023/12/04 07:44:04;;;;;;;10.73;9.63;;;;;;;-1.18;100.00;100662.13;5041525;28;20049;-67
2023/12/04 07:46:30;;;;;;;11.63;10.52;;;;;;;-1.21;100.00;100662.16;5037156;28;20039;-68
2023/12/04 07:48:55;;;;;;;11.82;10.52;;;;;;;-1.19;100.00;100668.25;5041402;28;20028;-68
2023/12/04 07:51:21;;;;;;;11.32;10.07;;;;;;;-1.19;100.00;100656.03;5039339;28;20100;-67
2023/12/04 07:53:47;;;;;;;11.88;10.60;;;;;;;-1.16;100.00;100656.03;5042680;28;20029;-66
2023/12/04 07:56:13;;;;;;;10.82;9.55;;;;;;;-1.12;100.00;100647.31;5042927;28;20025;-66
2023/12/04 07:58:38;;;;;;;10.98;9.88;;;;;;;-1.12;100.00;100644.69;5039992;28;20432;-67
2023/12/04 08:01:03;;;;;;;11.32;9.98;;;;;;;-1.08;100.00;100653.38;5040405;28;20367;-67
2023/12/04 08:03:29;;;;;;;13.13;10.38;;;;;;;-1.07;100.00;100637.69;5041531;28;20034;-67
2023/12/04 08:05:54;;;;;;;12.90;9.15;;;;;;;-1.06;100.00;100634.19;5041871;28;20036;-67
2023/12/04 08:08:20;;;;;;;11.63;9.80;;;;;;;-1.02;100.00;100633.28;5041739;28;20041;-67
2023/12/04 08:10:49;;;;;;;11.10;10.00;;;;;;;-1.05;100.00;100630.69;5040754;28;20017;-67
2023/12/04 08:13:15;;;;;;;12.80;10.32;;;;;;;-1.06;100.00;100633.34;5042392;28;20035;-67
2023/12/04 08:15:41;;;;;;;11.63;10.23;;;;;;;-1.02;100.00;100621.97;5043466;28;20030;-67
2023/12/04 08:18:06;;;;;;;11.93;10.63;;;;;;;-1.04;100.00;100628.97;5024356;28;20732;-67
2023/12/04 08:20:31;;;;;;;11.55;10.35;;;;;;;-1.03;100.00;100622.88;5042510;28;20043;-67
2023/12/04 08:22:57;;;;;;;11.07;10.00;;;;;;;-1.03;100.00;100626.34;5038998;28;20031;-68
2023/12/04 08:25:22;;;;;;;10.32;9.32;;;;;;;-0.99;100.00;100623.72;5040465;28;20032;-67
2023/12/04 08:27:49;;;;;;;11.07;9.93;;;;;;;-0.99;100.00;100619.34;5042170;28;20116;-68
2023/12/04 08:30:15;;;;;;;11.60;10.38;;;;;;;-0.98;100.00;100618.47;5031864;28;20273;-68
2023/12/04 08:32:40;;;;;;;11.10;9.85;;;;;;;-0.94;100.00;100614.09;5040341;28;20033;-67
2023/12/04 08:35:06;;;;;;;11.73;10.43;;;;;;;-0.93;100.00;100611.47;5039028;28;20103;-67
2023/12/04 08:37:31;;;;;;;12.18;10.30;;;;;;;-0.92;100.00;100604.47;5022015;28;20059;-67
2023/12/04 08:39:56;;;;;;;11.38;10.18;;;;;;;-0.88;100.00;100599.25;5040084;28;20123;-67
2023/12/04 08:42:22;;;;;;;11.57;10.40;;;;;;;-0.87;100.00;100595.75;5035958;28;20025;-68
2023/12/04 08:44:47;;;;;;;11.82;10.63;;;;;;;-0.86;100.00;100586.16;5039165;28;20526;-68
2023/12/04 08:47:13;;;;;;;12.30;10.98;;;;;;;-0.84;100.00;100582.63;5040841;28;20047;-67
2023/12/04 08:49:40;;;;;;;12.13;10.82;;;;;;;-0.81;100.00;100581.75;5039031;28;20189;-67
2023/12/04 08:52:07;;;;;;;11.25;10.10;;;;;;;-0.81;100.00;100573.91;5040084;28;20025;-67
2023/12/04 08:54:32;;;;;;;11.10;9.50;;;;;;;-0.81;100.00;100563.47;5035150;28;20083;-69
2023/12/04 08:56:58;;;;;;;10.57;9.48;;;;;;;-0.77;100.00;100566.03;5032434;28;20017;-69
2023/12/04 08:59:23;;;;;;;10.82;9.68;;;;;;;-0.73;100.00;100569.50;5036483;28;20033;-71
2023/12/04 09:01:48;;;;;;;10.10;9.05;;;;;;;-0.70;100.00;100563.38;5038153;28;20029;-69
2023/12/04 09:04:14;;;;;;;10.25;9.13;;;;;;;-0.74;100.00;100559.94;5033610;28;20029;-69
2023/12/04 09:06:39;;;;;;;9.68;8.73;;;;;;;-0.69;100.00;100570.34;5038113;28;20758;-69
2023/12/04 09:09:04;;;;;;;10.25;8.70;;;;;;;-0.69;100.00;100579.03;5036255;28;20163;-69
2023/12/04 09:11:30;;;;;;;11.07;9.50;;;;;;;-0.67;100.00;100572.06;5039768;28;20407;-69
2023/12/04 09:13:55;;;;;;;10.77;9.70;;;;;;;-0.64;100.00;100566.78;5038871;28;20033;-68
2023/12/04 09:16:21;;;;;;;11.35;10.05;;;;;;;-0.62;100.00;100562.44;5037549;28;20029;-69
2023/12/04 09:18:46;;;;;;;10.80;9.38;;;;;;;-0.60;100.00;100563.25;5040641;28;20048;-69
2023/12/04 09:21:12;;;;;;;10.00;8.98;;;;;;;-0.61;100.00;100555.44;5039751;28;20107;-69
2023/12/04 09:23:37;;;;;;;9.88;8.88;;;;;;;-0.58;100.00;100552.81;5039341;28;20036;-69
2023/12/04 09:26:03;;;;;;;11.38;9.80;;;;;;;-0.58;100.00;100548.44;5040350;28;21195;-69
2023/12/04 09:28:28;;;;;;;11.20;9.18;;;;;;;-0.54;100.00;100551.91;5038854;28;20454;-69
2023/12/04 09:30:53;;;;;;;11.32;9.40;;;;;;;-0.52;100.00;100547.50;5037740;28;20033;-69
2023/12/04 09:33:19;;;;;;;11.48;10.27;;;;;;;-0.49;100.00;100546.63;5023456;28;20017;-70
2023/12/04 09:35:44;;;;;;;11.25;9.88;;;;;;;-0.44;100.00;100555.28;5038622;28;20457;-69
2023/12/04 09:38:10;;;;;;;9.95;8.95;;;;;;;-0.39;100.00;100550.84;5039378;28;20040;-70
2023/12/04 09:40:36;;;;;;;11.38;10.18;;;;;;;-0.40;100.00;100547.38;5039050;28;20040;-68
2023/12/04 09:43:02;;;;;;;11.75;9.82;;;;;;;-0.35;100.00;100549.94;5038033;28;20029;-69
2023/12/04 09:45:29;;;;;;;11.55;10.32;;;;;;;-0.35;100.00;100547.31;5037304;28;20028;-68
2023/12/04 09:47:56;;;;;;;12.93;10.85;;;;;;;-0.29;100.00;100560.34;5035674;28;20643;-70
2023/12/04 09:50:22;;;;;;;12.30;11.00;;;;;;;-0.26;100.00;100549.84;5021858;28;20025;-68
2023/12/04 09:52:52;;;;;;;11.65;10.45;;;;;;;-0.24;100.00;100553.31;5038739;28;20024;-69
2023/12/04 09:55:17;;;;;;;12.35;11.07;;;;;;;-0.22;100.00;100551.53;5036176;28;20528;-68
2023/12/04 09:57:49;;;;;;;13.20;11.85;;;;;;;-0.19;100.00;100543.66;5038632;28;20029;-68
2023/12/04 10:00:16;;;;;;;13.18;11.85;;;;;;;-0.15;100.00;100541.88;5039021;28;20033;-68
2023/12/04 10:02:42;;;;;;;13.18;11.77;;;;;;;-0.12;100.00;100542.72;5041258;28;20024;-68
2023/12/04 10:05:10;;;;;;;13.70;12.23;;;;;;;-0.11;100.00;100541.81;5040355;28;20451;-70
2023/12/04 10:07:38;;;;;;;13.50;12.10;;;;;;;-0.12;100.00;100540.09;5039540;28;20363;-68
2023/12/04 10:10:08;;;;;;;13.63;12.18;;;;;;;-0.11;100.00;100533.09;5040814;28;20560;-67
2023/12/04 10:12:33;;;;;;;13.40;12.00;;;;;;;-0.11;100.00;100533.97;5040896;28;20083;-68
2023/12/04 10:15:17;;;;;;;13.70;12.20;;;;;;;-0.12;100.00;100524.41;5040293;28;20590;-69
2023/12/04 10:17:46;;;;;;;13.27;11.98;;;;;;;-0.11;100.00;100522.66;5044449;28;20029;-68
2023/12/04 10:20:19;;;;;;;13.63;12.18;;;;;;;-0.09;100.00;100519.09;5026756;28;20040;-68
2023/12/04 10:22:54;;;;;;;14.25;12.75;;;;;;;-0.02;100.00;100514.69;5045086;28;20306;-68
2023/12/04 10:25:19;;;;;;;14.13;12.63;;;;;;;0.01;100.00;100513.78;5043683;28;20052;-68
2023/12/04 10:27:48;;;;;;;13.20;11.85;;;;;;;0.02;100.00;100497.19;5043771;28;20111;-68
2023/12/04 10:30:30;;;;;;;14.98;12.65;;;;;;;0.09;100.00;100498.84;5042664;28;20601;-68
2023/12/04 10:33:07;;;;;;;14.80;12.88;;;;;;;0.11;100.00;100486.59;5040905;28;20021;-67
2023/12/04 10:35:36;;;;;;;14.00;12.52;;;;;;;0.17;100.00;100492.63;5040913;28;20032;-68
2023/12/04 10:38:03;;;;;;;14.40;12.73;;;;;;;0.21;100.00;100482.97;5041835;28;20052;-67
2023/12/04 10:40:33;;;;;;;15.02;13.43;;;;;;;0.24;100.00;100475.91;5041523;28;20111;-68
2023/12/04 10:43:14;;;;;;;13.95;12.55;;;;;;;0.31;100.00;100466.22;5042682;28;20379;-68
2023/12/04 10:45:40;;;;;;;13.90;12.48;;;;;;;0.33;100.00;100469.69;5041685;28;20039;-68
2023/12/04 10:48:06;;;;;;;15.50;13.63;;;;;;;0.39;100.00;100461.75;5042212;28;20442;-68
2023/12/04 10:50:34;;;;;;;15.52;13.18;;;;;;;0.47;100.00;100456.41;5041304;28;20052;-68
2023/12/04 10:53:03;;;;;;;14.68;13.05;;;;;;;0.49;100.00;100454.59;5041086;28;20098;-68
2023/12/04 10:55:29;;;;;;;15.52;13.73;;;;;;;0.50;100.00;100445.84;5037421;28;20756;-68
2023/12/04 10:57:55;;;;;;;15.43;13.35;;;;;;;0.51;100.00;100445.00;5042106;28;20112;-67